Time;durP1;ratioP1;P1;durP2;ratioP2;P2;SDS_P1;SDS_P2;PMS_P1;PMS_P2;Temp;Humidity;BMP_temperature;BMP_pressure;BME280_temperature;BME280_humidity;BME280_pressure;Samples;Min_cycle;Max_cycle;Signal;HPM_P1;HPM_P2
2022/08/22 00:01:01;;;;;;;8.50;3.60;;;17.50;99.90;;;;;;5098132;28;20069;-89
2022/08/22 00:03:36;;;;;;;11.05;3.60;;;17.50;99.90;;;;;;5114932;28;20495;-89
2022/08/22 00:06:10;;;;;;;7.35;3.15;;;17.40;99.90;;;;;;5114754;28;20043;-89
2022/08/22 00:08:51;;;;;;;7.70;3.20;;;17.40;99.90;;;;;;5114692;28;20039;-89
2022/08/22 00:11:51;;;;;;;7.80;3.35;;;17.40;99.90;;;;;;5114050;28;20180;-89
2022/08/22 00:14:48;;;;;;;7.38;3.63;;;17.40;99.90;;;;;;5114393;28;20487;-88
2022/08/22 00:17:38;;;;;;;9.93;3.28;;;17.40;99.90;;;;;;5097714;28;20047;-89
2022/08/22 00:20:25;;;;;;;9.95;3.63;;;17.40;99.90;;;;;;5114913;28;20491;-89
2022/08/22 00:23:18;;;;;;;10.18;3.70;;;17.30;99.90;;;;;;5098013;28;20126;-89
2022/08/22 00:25:49;;;;;;;9.80;3.30;;;17.30;99.90;;;;;;5114107;28;20040;-89
2022/08/22 00:28:40;;;;;;;7.85;3.33;;;17.30;99.90;;;;;;5133163;28;20135;-89
2022/08/22 00:31:31;;;;;;;8.50;3.50;;;17.30;99.90;;;;;;5097902;28;20130;-89
2022/08/22 00:34:05;;;;;;;9.85;3.45;;;17.20;99.90;;;;;;5133249;28;20039;-89
2022/08/22 00:36:35;;;;;;;9.88;3.80;;;17.20;99.90;;;;;;5114866;28;20383;-89
2022/08/22 00:39:15;;;;;;;10.85;3.67;;;17.20;99.90;;;;;;5114930;28;20043;-89
2022/08/22 00:42:02;;;;;;;9.52;3.78;;;17.20;99.90;;;;;;5114627;28;20075;-89
2022/08/22 00:44:53;;;;;;;9.20;3.63;;;17.20;99.90;;;;;;5117515;27;20043;-89
2022/08/22 00:47:37;;;;;;;9.38;3.80;;;17.10;99.90;;;;;;5113147;27;20043;-88
2022/08/22 00:50:20;;;;;;;9.82;3.63;;;17.10;99.90;;;;;;5118471;27;20051;-88
2022/08/22 00:53:30;;;;;;;9.40;3.80;;;17.10;99.90;;;;;;5118275;27;20495;-89
2022/08/22 00:56:34;;;;;;;9.27;3.58;;;17.10;99.90;;;;;;5101733;27;20525;-89
2022/08/22 00:59:08;;;;;;;10.27;3.97;;;17.10;99.90;;;;;;5136208;27;20341;-89
2022/08/22 01:01:42;;;;;;;7.90;4.20;;;17.10;99.90;;;;;;5117519;27;20047;-89
2022/08/22 01:04:46;;;;;;;9.50;4.20;;;17.10;99.90;;;;;;5136695;27;20164;-88
2022/08/22 01:07:36;;;;;;;10.27;4.50;;;17.10;99.90;;;;;;5116842;27;20108;-89
2022/08/22 01:10:24;;;;;;;7.80;4.10;;;17.10;99.90;;;;;;5100408;27;20099;-89
2022/08/22 01:13:13;;;;;;;7.38;4.28;;;17.10;99.90;;;;;;5117440;27;20086;-89
2022/08/22 01:15:41;;;;;;;13.10;4.72;;;17.00;99.90;;;;;;5117671;27;20092;-89
2022/08/22 01:18:24;;;;;;;10.50;4.00;;;17.10;99.90;;;;;;5117481;27;20090;-88
2022/08/22 01:21:42;;;;;;;9.90;4.20;;;17.10;99.90;;;;;;5100512;27;20043;-88
2022/08/22 01:25:16;;;;;;;10.52;4.82;;;17.10;99.90;;;;;;5071452;28;20048;-89
2022/08/22 01:27:50;;;;;;;9.93;4.22;;;17.00;99.90;;;;;;5055347;28;20048;-89
2022/08/22 01:30:44;;;;;;;7.78;3.90;;;17.00;99.90;;;;;;5072337;28;20051;-89
2022/08/22 01:33:39;;;;;;;10.50;4.60;;;17.00;99.90;;;;;;5055006;28;20596;-89
2022/08/22 01:36:26;;;;;;;8.40;3.97;;;17.00;99.90;;;;;;5055543;28;20048;-89
2022/08/22 01:39:16;;;;;;;9.20;4.40;;;17.00;99.90;;;;;;5071242;28;20512;-89
2022/08/22 01:42:19;;;;;;;10.77;4.60;;;16.90;99.90;;;;;;5054738;28;20044;-88
2022/08/22 01:45:05;;;;;;;7.18;3.40;;;16.90;99.90;;;;;;5071720;28;20044;-88
2022/08/22 01:47:45;;;;;;;9.82;4.28;;;16.90;99.90;;;;;;5055023;28;20433;-89
2022/08/22 01:50:24;;;;;;;13.50;4.50;;;16.80;99.90;;;;;;5038284;28;20048;-89
2022/08/22 01:53:03;;;;;;;6.53;4.05;;;16.80;99.90;;;;;;5054324;28;20102;-89
2022/08/22 01:55:51;;;;;;;8.93;4.07;;;16.80;99.90;;;;;;5054489;28;20134;-89
2022/08/22 01:58:35;;;;;;;9.82;4.75;;;16.70;99.90;;;;;;5073179;27;20574;-89
2022/08/22 02:01:07;;;;;;;10.93;4.38;;;16.70;99.90;;;;;;5116640;27;20480;-89
2022/08/22 02:03:55;;;;;;;8.85;4.35;;;16.70;99.90;;;;;;5098904;27;20129;-88
2022/08/22 02:06:32;;;;;;;8.10;4.22;;;16.70;99.90;;;;;;5098333;27;20039;-89
2022/08/22 02:09:20;;;;;;;8.85;4.75;;;16.70;99.90;;;;;;5115817;27;20047;-89
2022/08/22 02:11:53;;;;;;;11.75;5.18;;;16.70;99.90;;;;;;5116037;27;20096;-89
2022/08/22 02:14:31;;;;;;;9.15;5.30;;;16.60;99.90;;;;;;5134097;27;20541;-89
2022/08/22 02:17:23;;;;;;;10.63;5.45;;;16.60;99.90;;;;;;5116263;27;20389;-89
2022/08/22 02:20:04;;;;;;;10.52;5.55;;;16.70;99.90;;;;;;5098914;27;20047;-89
2022/08/22 02:22:53;;;;;;;11.50;5.68;;;16.70;99.90;;;;;;5115371;27;20077;-89
2022/08/22 02:25:27;;;;;;;9.82;5.40;;;16.70;99.90;;;;;;5134175;27;20094;-89
2022/08/22 02:28:17;;;;;;;11.98;5.88;;;16.80;99.90;;;;;;5098803;27;20047;-89
2022/08/22 02:31:02;;;;;;;10.20;5.50;;;16.80;99.90;;;;;;5115944;27;20071;-89
2022/08/22 02:33:57;;;;;;;11.57;6.00;;;16.80;99.90;;;;;;5116013;27;20051;-89
2022/08/22 02:36:30;;;;;;;14.27;6.40;;;16.90;99.90;;;;;;5115143;27;20043;-88
2022/08/22 02:39:05;;;;;;;13.20;6.45;;;16.90;99.90;;;;;;5098287;27;20043;-89
2022/08/22 02:41:52;;;;;;;11.60;5.95;;;16.80;99.90;;;;;;5133717;27;20122;-89
2022/08/22 02:44:33;;;;;;;11.17;5.73;;;16.90;99.90;;;;;;5098537;27;20062;-89
2022/08/22 02:47:19;;;;;;;7.55;5.15;;;16.90;99.90;;;;;;5133819;27;20280;-88
2022/08/22 02:50:07;;;;;;;12.07;6.28;;;16.90;99.90;;;;;;5133352;27;20039;-88
2022/08/22 02:52:46;;;;;;;9.63;5.53;;;16.80;99.90;;;;;;5098969;27;20609;-89
2022/08/22 02:55:20;;;;;;;11.93;5.85;;;16.80;99.90;;;;;;5098463;27;20129;-89
2022/08/22 02:57:59;;;;;;;7.72;5.50;;;16.90;99.90;;;;;;5098514;27;20135;-89
2022/08/22 03:00:28;;;;;;;14.55;5.50;;;16.90;99.90;;;;;;5115501;27;20039;-88
2022/08/22 03:03:15;;;;;;;10.60;5.10;;;16.90;99.90;;;;;;5115141;27;20039;-89
2022/08/22 03:05:43;;;;;;;10.00;5.23;;;16.90;99.90;;;;;;5114507;27;20117;-88
2022/08/22 03:08:32;;;;;;;8.88;5.35;;;17.00;99.90;;;;;;5114913;27;20163;-88
2022/08/22 03:11:21;;;;;;;9.52;5.10;;;17.00;99.90;;;;;;5098201;27;20482;-88
2022/08/22 03:14:10;;;;;;;11.82;5.30;;;17.00;99.90;;;;;;5115247;27;20045;-89
2022/08/22 03:17:00;;;;;;;9.63;5.32;;;16.90;99.90;;;;;;5115254;27;20055;-89
2022/08/22 03:19:41;;;;;;;9.38;5.63;;;16.90;99.90;;;;;;5132686;27;20499;-89
2022/08/22 03:22:12;;;;;;;8.40;5.60;;;16.90;99.90;;;;;;5115056;27;20066;-88
2022/08/22 03:24:38;;;;;;;11.32;6.50;;;16.80;99.90;;;;;;5114898;27;20042;-89
2022/08/22 03:27:18;;;;;;;11.32;5.65;;;16.90;99.90;;;;;;5133675;27;20046;-88
2022/08/22 03:29:52;;;;;;;8.98;4.70;;;16.90;99.90;;;;;;5133703;27;20047;-89
2022/08/22 03:32:21;;;;;;;8.02;5.25;;;16.80;99.90;;;;;;5114913;28;20091;-88
2022/08/22 03:34:55;;;;;;;11.63;5.55;;;16.90;99.90;;;;;;5114999;27;20039;-89
2022/08/22 03:37:39;;;;;;;8.93;5.03;;;16.80;99.90;;;;;;5098427;28;20054;-89
2022/08/22 03:40:27;;;;;;;12.15;6.15;;;16.90;99.90;;;;;;5135637;28;20055;-89
2022/08/22 03:43:11;;;;;;;10.27;5.60;;;16.90;99.90;;;;;;5118777;28;20047;-89
2022/08/22 03:45:52;;;;;;;10.18;5.15;;;16.90;99.90;;;;;;5109495;28;20031;-88
2022/08/22 03:48:37;;;;;;;9.75;5.40;;;16.90;99.90;;;;;;5139665;27;20027;-88
2022/08/22 03:51:41;;;;;;;16.05;6.03;;;16.90;99.90;;;;;;5140448;28;20031;-89
2022/08/22 03:54:34;;;;;;;13.50;6.10;;;16.90;99.90;;;;;;5139875;27;20043;-88
2022/08/22 03:57:33;;;;;;;12.32;6.32;;;16.90;99.90;;;;;;5134199;28;20039;-88
2022/08/22 04:00:22;;;;;;;13.98;6.35;;;16.80;99.90;;;;;;5133624;28;20055;-88
2022/08/22 04:03:15;;;;;;;12.77;5.88;;;16.70;99.90;;;;;;5132941;28;20055;-89
2022/08/22 04:06:11;;;;;;;16.42;6.25;;;16.70;99.90;;;;;;5121988;28;20042;-89
2022/08/22 04:09:01;;;;;;;10.15;5.57;;;16.60;99.90;;;;;;5116687;28;20459;-88
2022/08/22 04:11:47;;;;;;;11.98;6.55;;;16.60;99.90;;;;;;5114721;28;20039;-89
2022/08/22 04:14:48;;;;;;;12.55;6.70;;;16.60;99.90;;;;;;5114888;28;20039;-89
2022/08/22 04:17:23;;;;;;;11.18;6.07;;;16.50;99.90;;;;;;5114185;27;20047;-88
2022/08/22 04:19:58;;;;;;;10.27;5.55;;;16.50;99.90;;;;;;5117567;27;20091;-89
2022/08/22 04:22:42;;;;;;;11.32;6.10;;;16.50;99.90;;;;;;5118366;27;20047;-89
2022/08/22 04:25:22;;;;;;;11.60;5.75;;;16.50;99.90;;;;;;5119079;27;20039;-89
2022/08/22 04:27:56;;;;;;;10.25;5.60;;;16.50;99.90;;;;;;5137120;27;20035;-89
2022/08/22 04:30:59;;;;;;;10.55;5.30;;;16.50;99.90;;;;;;5101278;27;20047;-89
2022/08/22 04:33:30;;;;;;;11.52;5.70;;;16.50;99.90;;;;;;5093674;27;20452;-89
2022/08/22 04:36:08;;;;;;;11.82;5.97;;;16.50;99.90;;;;;;5136631;27;20043;-89
2022/08/22 04:38:46;;;;;;;10.82;6.30;;;16.50;99.90;;;;;;5118465;27;20420;-89
2022/08/22 04:41:23;;;;;;;;;;;16.40;99.90;;;;;;5136396;27;20051;-89
2022/08/22 04:44:09;;;;;;;12.23;5.80;;;16.40;99.90;;;;;;5118309;27;19970;-89
2022/08/22 04:46:46;;;;;;;11.67;5.90;;;16.40;99.90;;;;;;5136347;27;20121;-89
2022/08/22 04:49:32;;;;;;;12.75;6.13;;;16.40;99.90;;;;;;5136788;27;20046;-89
2022/08/22 04:52:09;;;;;;;8.73;6.05;;;16.40;99.90;;;;;;5136782;27;20043;-89
2022/08/22 04:54:55;;;;;;;9.60;5.80;;;16.40;99.90;;;;;;5118233;27;20039;-89
2022/08/22 04:57:47;;;;;;;11.38;5.65;;;16.40;99.90;;;;;;5118063;27;20088;-89
2022/08/22 05:00:14;;;;;;;10.98;5.93;;;16.40;99.90;;;;;;5136461;27;20053;-89
2022/08/22 05:02:48;;;;;;;16.42;5.95;;;16.50;99.90;;;;;;5100860;27;20046;-89
2022/08/22 05:05:23;;;;;;;10.90;6.00;;;16.50;99.90;;;;;;5117515;27;20490;-89
2022/08/22 05:07:54;;;;;;;9.63;5.40;;;16.50;99.90;;;;;;5100774;27;20035;-89
2022/08/22 05:10:28;;;;;;;11.52;5.68;;;16.50;99.90;;;;;;5118019;27;20139;-89
2022/08/22 05:12:59;;;;;;;11.38;5.63;;;16.60;99.90;;;;;;5118003;27;20130;-89
2022/08/22 05:15:37;;;;;;;9.18;5.47;;;16.60;99.90;;;;;;5135625;27;20050;-89
2022/08/22 05:18:08;;;;;;;13.00;5.60;;;16.60;99.90;;;;;;5118321;27;20372;-89
2022/08/22 05:20:35;;;;;;;9.93;5.53;;;16.70;99.90;;;;;;5117606;27;20055;-89
2022/08/22 05:23:10;;;;;;;13.32;5.78;;;16.70;99.90;;;;;;5117479;27;20042;-89
2022/08/22 05:25:39;;;;;;;12.75;5.70;;;16.70;99.90;;;;;;5117124;27;20062;-88
2022/08/22 05:28:11;;;;;;;10.52;5.35;;;16.80;99.90;;;;;;5100149;27;20047;-89
2022/08/22 05:30:38;;;;;;;12.30;5.65;;;16.80;99.90;;;;;;5116083;27;20057;-89
2022/08/22 05:33:25;;;;;;;11.90;5.93;;;16.80;99.90;;;;;;5117316;27;20046;-88
2022/08/22 05:35:59;;;;;;;10.38;5.63;;;16.80;99.90;;;;;;5117015;27;20047;-88
2022/08/22 05:38:35;;;;;;;10.82;5.57;;;16.90;99.90;;;;;;5134791;27;20039;-89
2022/08/22 05:41:08;;;;;;;11.20;5.38;;;16.80;99.90;;;;;;5117127;27;20091;-89
2022/08/22 05:43:40;;;;;;;10.82;5.70;;;16.90;99.90;;;;;;5135208;27;20126;-89
2022/08/22 05:46:22;;;;;;;9.48;5.30;;;16.90;99.90;;;;;;5134992;27;20046;-88
2022/08/22 05:49:02;;;;;;;12.93;5.90;;;16.90;99.90;;;;;;5117049;27;20481;-89
2022/08/22 05:51:42;;;;;;;9.82;5.18;;;16.90;99.90;;;;;;5116856;27;20054;-89
2022/08/22 05:54:18;;;;;;;13.35;6.45;;;16.90;99.90;;;;;;5117182;27;20487;-88
2022/08/22 05:56:50;;;;;;;10.90;5.18;;;17.00;99.90;;;;;;5100017;27;20129;-88
2022/08/22 05:59:24;;;;;;;11.98;5.78;;;17.00;99.90;;;;;;5099139;27;20054;-88
2022/08/22 06:02:07;;;;;;;11.25;5.80;;;17.00;99.90;;;;;;5135036;27;20039;-88
2022/08/22 06:04:45;;;;;;;8.00;5.13;;;17.10;99.90;;;;;;5134930;27;20091;-89
2022/08/22 06:07:34;;;;;;;11.98;5.32;;;17.10;99.90;;;;;;5099569;27;20047;-88
2022/08/22 06:10:21;;;;;;;8.57;5.18;;;17.10;99.90;;;;;;5117450;27;20027;-89
2022/08/22 06:13:01;;;;;;;;;;;17.20;99.90;;;;;;5134790;27;20047;-89
2022/08/22 06:15:45;;;;;;;11.75;6.07;;;17.20;99.90;;;;;;5116394;27;19920;-88
2022/08/22 06:18:15;;;;;;;11.68;5.82;;;17.20;99.90;;;;;;5116180;27;20081;-89
2022/08/22 06:20:50;;;;;;;11.57;5.63;;;17.20;99.90;;;;;;5116641;27;20042;-89
2022/08/22 06:23:43;;;;;;;13.80;5.82;;;17.30;99.90;;;;;;5099690;27;20558;-88
2022/08/22 06:26:10;;;;;;;9.32;5.88;;;17.30;99.90;;;;;;5107887;27;20086;-89
2022/08/22 06:28:46;;;;;;;11.63;6.15;;;17.30;99.90;;;;;;5098734;27;20046;-89
2022/08/22 06:31:18;;;;;;;12.45;5.78;;;17.40;99.90;;;;;;5134657;27;20512;-88
2022/08/22 06:33:57;;;;;;;12.23;5.65;;;17.40;99.90;;;;;;5134998;27;20039;-89
2022/08/22 06:36:31;;;;;;;12.23;5.25;;;17.40;99.90;;;;;;5134025;27;20500;-89
2022/08/22 06:39:21;;;;;;;15.18;6.70;;;17.40;99.90;;;;;;5115572;27;20050;-89
2022/08/22 06:41:53;;;;;;;14.63;6.45;;;17.40;99.90;;;;;;5132991;27;20566;-89
2022/08/22 06:44:22;;;;;;;10.88;5.75;;;17.50;99.90;;;;;;5115590;27;20048;-88
2022/08/22 06:46:54;;;;;;;15.15;6.80;;;17.50;99.90;;;;;;5116310;27;20043;-89
2022/08/22 06:49:22;;;;;;;10.90;5.90;;;17.60;99.90;;;;;;5115799;27;20035;-89
2022/08/22 06:51:49;;;;;;;12.23;6.07;;;17.70;99.90;;;;;;5116282;27;20046;-89
2022/08/22 06:54:22;;;;;;;11.07;6.20;;;17.70;99.90;;;;;;5115974;27;20039;-90
2022/08/22 06:56:51;;;;;;;10.45;5.68;;;17.70;99.90;;;;;;5133953;27;20046;-89
2022/08/22 06:59:22;;;;;;;12.48;5.30;;;17.90;99.90;;;;;;5115296;27;20093;-89
2022/08/22 07:01:53;;;;;;;11.95;5.70;;;17.90;99.90;;;;;;5115378;27;20078;-89
2022/08/22 07:04:25;;;;;;;12.52;5.97;;;17.90;99.90;;;;;;5098739;27;20082;-90
2022/08/22 07:06:52;;;;;;;10.65;5.20;;;17.90;99.90;;;;;;5098699;27;20047;-89
2022/08/22 07:09:36;;;;;;;12.95;6.05;;;18.00;99.90;;;;;;5098701;27;20081;-89
2022/08/22 07:12:25;;;;;;;12.63;5.32;;;18.00;99.90;;;;;;5133713;27;20037;-89
2022/08/22 07:14:53;;;;;;;12.93;5.43;;;18.10;99.90;;;;;;5098792;27;20091;-89
2022/08/22 07:17:28;;;;;;;10.20;5.20;;;18.10;99.90;;;;;;5115489;27;20046;-89
2022/08/22 07:20:30;;;;;;;13.88;5.65;;;18.20;99.90;;;;;;5115800;27;20435;-89
2022/08/22 07:22:59;;;;;;;10.10;5.22;;;18.30;99.90;;;;;;5102982;27;20055;-89
2022/08/22 07:25:26;;;;;;;10.75;4.88;;;18.40;99.90;;;;;;5133909;27;20039;-89
2022/08/22 07:27:58;;;;;;;10.17;4.97;;;18.50;99.90;;;;;;5111169;27;20042;-89
2022/08/22 07:30:35;;;;;;;9.18;4.82;;;18.60;99.90;;;;;;5115364;27;20272;-89
2022/08/22 07:33:06;;;;;;;9.27;4.53;;;18.60;99.90;;;;;;5115453;27;20539;-89
2022/08/22 07:35:43;;;;;;;13.40;4.68;;;18.90;99.90;;;;;;5115065;27;20395;-89
2022/08/22 07:38:41;;;;;;;9.13;4.05;;;19.20;99.90;;;;;;5115049;27;20039;-89
2022/08/22 07:41:22;;;;;;;14.48;5.13;;;19.40;99.90;;;;;;5097409;28;20099;-89
2022/08/22 07:43:53;;;;;;;10.32;4.75;;;19.40;99.90;;;;;;5115489;27;20046;-91
2022/08/22 07:46:36;;;;;;;11.65;4.43;;;19.30;99.90;;;;;;5114983;28;20047;-89
2022/08/22 07:49:21;;;;;;;9.73;3.90;;;19.30;99.90;;;;;;5114947;28;20046;-89
2022/08/22 07:51:53;;;;;;;11.23;3.95;;;19.40;99.90;;;;;;5115010;28;20390;-90
2022/08/22 07:54:56;;;;;;;11.25;4.20;;;19.40;99.90;;;;;;5118847;27;20039;-90
2022/08/22 07:57:53;;;;;;;11.32;3.95;;;19.40;99.90;;;;;;5119240;27;20039;-89
2022/08/22 08:00:20;;;;;;;11.70;3.95;;;19.50;99.90;;;;;;5101135;27;20111;-89
2022/08/22 08:02:50;;;;;;;12.38;3.75;;;19.50;99.90;;;;;;5119401;27;20065;-89
2022/08/22 08:05:17;;;;;;;10.10;3.88;;;19.50;99.90;;;;;;5119051;27;20478;-90
2022/08/22 08:07:44;;;;;;;9.25;4.20;;;19.50;99.90;;;;;;5119220;27;20031;-89
2022/08/22 08:10:15;;;;;;;9.60;4.10;;;19.50;99.90;;;;;;5137213;27;20114;-90
2022/08/22 08:12:49;;;;;;;10.63;3.75;;;19.50;99.90;;;;;;5137795;27;20543;-90
2022/08/22 08:15:20;;;;;;;6.90;3.63;;;19.60;99.90;;;;;;5101884;27;20043;-90
2022/08/22 08:17:49;;;;;;;11.18;4.38;;;19.70;99.90;;;;;;5137419;27;20076;-90
2022/08/22 08:20:20;;;;;;;10.77;3.80;;;19.90;99.90;;;;;;5118801;27;20054;-90
2022/08/22 08:22:48;;;;;;;12.18;3.70;;;;;;;;;;5137090;27;20281;-90
2022/08/22 08:25:18;;;;;;;12.70;4.05;;;20.30;99.90;;;;;;5101656;27;20061;-90
2022/08/22 08:30:36;;;;;;;9.95;4.10;;;20.40;99.90;;;;;;5118661;27;20047;-89
2022/08/22 08:33:05;;;;;;;8.05;3.38;;;20.50;99.90;;;;;;5137173;27;20062;-89
2022/08/22 08:35:37;;;;;;;9.10;3.45;;;20.50;99.90;;;;;;5118219;27;20075;-90
2022/08/22 08:38:09;;;;;;;7.65;3.17;;;20.60;99.90;;;;;;5100930;27;20038;-89
2022/08/22 08:41:06;;;;;;;11.45;2.95;;;20.80;99.90;;;;;;5118258;27;20055;-90
2022/08/22 08:43:54;;;;;;;7.68;3.33;;;20.90;99.90;;;;;;5118280;27;20050;-89
2022/08/22 08:46:47;;;;;;;9.90;3.35;;;20.80;99.90;;;;;;5101251;27;20045;-90
2022/08/22 08:49:24;;;;;;;5.93;3.20;;;20.90;99.90;;;;;;5136692;27;20035;-90
2022/08/22 08:52:27;;;;;;;8.80;2.88;;;21.10;99.90;;;;;;5118142;27;20039;-90
2022/08/22 08:55:23;;;;;;;11.65;3.67;;;21.20;99.90;;;;;;5118211;27;20047;-89
2022/08/22 08:58:08;;;;;;;10.45;3.20;;;21.00;99.90;;;;;;5118352;27;20556;-90
2022/08/22 09:00:43;;;;;;;10.10;3.25;;;21.00;99.90;;;;;;5101182;27;20043;-89
2022/08/22 09:03:11;;;;;;;11.95;3.38;;;21.20;99.90;;;;;;5118063;27;20035;-90
2022/08/22 09:06:15;;;;;;;11.25;3.53;;;21.40;99.90;;;;;;5116800;27;20475;-90
2022/08/22 09:08:58;;;;;;;10.75;3.05;;;21.60;99.90;;;;;;5117621;27;20054;-90
2022/08/22 09:12:00;;;;;;;5.90;2.50;;;21.50;99.90;;;;;;5117496;27;20047;-89
2022/08/22 09:14:44;;;;;;;5.93;2.13;;;21.40;99.90;;;;;;5135930;27;20056;-89
2022/08/22 09:17:38;;;;;;;9.52;3.05;;;21.50;99.90;;;;;;5136040;27;20123;-89
2022/08/22 09:20:45;;;;;;;8.00;2.25;;;21.70;99.90;;;;;;5101066;27;20050;-90
2022/08/22 09:23:47;;;;;;;8.15;2.75;;;21.50;99.90;;;;;;5100036;27;20407;-89
2022/08/22 09:26:17;;;;;;;8.20;2.55;;;21.70;99.90;;;;;;5117489;27;20503;-90
2022/08/22 09:29:27;;;;;;;5.95;2.15;;;21.90;99.90;;;;;;5117312;27;20546;-89
2022/08/22 09:32:41;;;;;;;6.85;2.50;;;21.80;99.90;;;;;;5117096;27;20051;-89
2022/08/22 09:35:26;;;;;;;6.15;2.20;;;22.10;99.90;;;;;;5117160;27;20043;-89
2022/08/22 09:37:52;;;;;;;8.45;2.38;;;22.00;99.90;;;;;;5116887;27;20494;-89
2022/08/22 09:40:45;;;;;;;7.85;2.72;;;21.90;99.90;;;;;;5096787;28;20051;-89
2022/08/22 09:43:36;;;;;;;7.43;2.30;;;22.20;99.90;;;;;;5096763;28;20071;-89
2022/08/22 09:46:21;;;;;;;7.88;2.13;;;22.10;99.90;;;;;;5117533;28;20121;-89
2022/08/22 09:49:07;;;;;;;6.70;2.65;;;22.20;99.90;;;;;;5108030;28;20058;-89
2022/08/22 09:51:54;;;;;;;8.60;2.08;;;22.60;99.90;;;;;;5126422;28;20119;-89
2022/08/22 09:54:24;;;;;;;;;;;22.90;99.90;;;;;;5136612;28;20048;-89
2022/08/22 09:57:00;;;;;;;5.45;2.13;;;23.10;99.90;;;;;;5121823;28;19908;-90
2022/08/22 09:59:32;;;;;;;7.18;2.20;;;23.00;99.90;;;;;;5121740;28;20059;-90
2022/08/22 10:02:14;;;;;;;6.70;2.13;;;22.90;99.90;;;;;;5137723;28;20099;-90
2022/08/22 10:04:49;;;;;;;5.82;2.13;;;22.90;99.90;;;;;;5114092;28;20059;-89
2022/08/22 10:07:33;;;;;;;5.20;2.03;;;22.90;99.90;;;;;;5096746;28;20126;-90
2022/08/22 10:10:29;;;;;;;6.82;2.13;;;22.80;99.90;;;;;;5095905;28;20054;-89
2022/08/22 10:13:19;;;;;;;6.75;2.13;;;23.10;99.90;;;;;;5096087;28;20047;-90
2022/08/22 10:16:01;;;;;;;7.72;2.28;;;23.30;99.90;;;;;;5078972;28;20044;-90
2022/08/22 10:18:55;;;;;;;6.97;2.00;;;23.10;99.90;;;;;;5078791;28;20492;-90
2022/08/22 10:21:42;;;;;;;5.63;2.13;;;23.40;99.90;;;;;;5095794;28;20396;-90
2022/08/22 10:24:14;;;;;;;;;;;23.60;99.90;;;;;;5096832;28;20044;-90
2022/08/22 10:27:02;;;;;;;6.25;2.35;;;23.80;99.90;;;;;;5096122;28;20396;-90
2022/08/22 10:29:57;;;;;;;7.97;2.70;;;23.50;99.90;;;;;;5114072;28;20084;-90
2022/08/22 10:32:36;;;;;;;6.28;2.22;;;23.90;99.90;;;;;;5111786;28;20524;-90
2022/08/22 10:35:25;;;;;;;4.80;2.15;;;23.90;99.90;;;;;;5095448;28;20039;-90
2022/08/22 10:38:06;;;;;;;6.22;2.30;;;24.20;99.90;;;;;;5112774;28;20487;-89
2022/08/22 10:40:44;;;;;;;6.40;2.63;;;24.50;99.90;;;;;;5124886;27;20086;-89
2022/08/22 10:43:15;;;;;;;7.13;2.40;;;24.30;99.90;;;;;;5116511;27;20074;-90
2022/08/22 10:45:44;;;;;;;8.43;2.90;;;24.60;99.90;;;;;;5116785;27;20471;-90
2022/08/22 10:48:09;;;;;;;7.70;2.55;;;24.40;99.90;;;;;;5119796;27;20394;-90
2022/08/22 10:50:43;;;;;;;7.30;2.90;;;24.30;99.90;;;;;;5126487;27;20043;-90
2022/08/22 10:53:32;;;;;;;12.70;2.95;;;24.00;99.90;;;;;;5117990;27;20042;-89
2022/08/22 10:56:13;;;;;;;8.20;2.70;;;24.00;99.90;;;;;;5134246;27;20752;-90
2022/08/22 10:59:21;;;;;;;5.93;2.80;;;23.90;99.90;;;;;;5115495;27;20047;-90
2022/08/22 11:02:20;;;;;;;6.25;2.40;;;24.00;99.90;;;;;;5098663;27;20043;-90
2022/08/22 11:05:07;;;;;;;6.13;2.70;;;24.10;99.90;;;;;;5133093;27;20526;-90
2022/08/22 11:08:05;;;;;;;9.30;2.85;;;24.10;99.90;;;;;;5098028;27;20035;-90
2022/08/22 11:11:05;;;;;;;8.63;2.70;;;24.40;99.90;;;;;;5115561;27;20054;-90
2022/08/22 11:13:56;;;;;;;7.50;2.50;;;24.60;99.90;;;;;;5115596;27;20480;-90
2022/08/22 11:17:01;;;;;;;11.57;3.15;;;24.70;99.90;;;;;;5115843;27;20039;-90
2022/08/22 11:19:36;;;;;;;6.85;2.50;;;24.80;99.90;;;;;;5114707;27;20047;-89
2022/08/22 11:22:26;;;;;;;8.25;3.20;;;24.60;99.90;;;;;;5133529;27;20075;-89
2022/08/22 11:25:01;;;;;;;7.28;2.55;;;24.90;99.90;;;;;;5133783;27;20039;-91
2022/08/22 11:27:33;;;;;;;9.27;2.92;;;25.10;99.90;;;;;;5133464;27;20136;-90
2022/08/22 11:30:28;;;;;;;7.82;2.50;;;25.10;99.90;;;;;;5115255;27;20399;-90
2022/08/22 11:33:15;;;;;;;8.20;2.60;;;25.20;99.90;;;;;;5114550;27;20035;-91
2022/08/22 11:36:10;;;;;;;6.55;2.72;;;25.20;99.90;;;;;;5115013;27;20043;-90
2022/08/22 11:38:57;;;;;;;6.85;3.00;;;24.90;99.90;;;;;;5114757;27;20063;-90
2022/08/22 11:41:43;;;;;;;6.00;2.70;;;25.10;99.90;;;;;;5133372;27;20096;-90
2022/08/22 11:44:20;;;;;;;9.10;2.47;;;25.10;99.90;;;;;;5133364;27;20467;-90
2022/08/22 11:46:50;;;;;;;6.03;2.53;;;25.20;99.90;;;;;;5114978;27;20448;-90
2022/08/22 11:49:44;;;;;;;9.57;3.03;;;25.10;99.90;;;;;;5115268;28;20054;-90
2022/08/22 11:52:16;;;;;;;5.90;2.50;;;24.80;99.90;;;;;;5115537;28;20047;-90
2022/08/22 11:55:15;;;;;;;6.70;2.78;;;24.70;99.90;;;;;;5098234;28;20096;-90
2022/08/22 11:57:42;;;;;;;10.38;2.85;;;24.80;99.90;;;;;;5114921;28;20047;-90
2022/08/22 12:00:20;;;;;;;8.02;3.03;;;24.80;99.90;;;;;;5133366;28;20044;-90
2022/08/22 12:03:14;;;;;;;8.05;2.88;;;24.90;99.90;;;;;;5132903;28;20074;-90
2022/08/22 12:06:05;;;;;;;7.57;2.80;;;24.80;99.90;;;;;;5098013;28;20232;-90
2022/08/22 12:08:39;;;;;;;6.47;2.80;;;24.90;99.90;;;;;;5078333;28;20050;-90
2022/08/22 12:11:45;;;;;;;8.20;2.67;;;25.00;99.90;;;;;;5114965;28;20509;-90
2022/08/22 12:14:37;;;;;;;8.90;2.80;;;25.20;99.90;;;;;;5106818;28;20109;-90
2022/08/22 12:17:14;;;;;;;7.05;2.65;;;25.10;99.90;;;;;;5115104;28;20058;-90
2022/08/22 12:19:46;;;;;;;;;;;25.10;99.90;;;;;;5098225;28;20070;-90
2022/08/22 12:22:37;;;;;;;5.30;2.17;;;25.10;99.90;;;;;;5114999;28;20006;-90
2022/08/22 12:25:32;;;;;;;7.85;2.63;;;25.30;99.90;;;;;;5114806;28;20100;-89
2022/08/22 12:28:22;;;;;;;9.85;3.15;;;25.20;99.90;;;;;;5103816;28;20055;-90
2022/08/22 12:31:02;;;;;;;8.45;2.67;;;25.30;99.90;;;;;;5114456;28;20043;-90
2022/08/22 12:33:41;;;;;;;5.35;2.30;;;25.30;99.90;;;;;;5114614;28;20071;-90
2022/08/22 12:36:36;;;;;;;9.30;3.05;;;25.20;99.90;;;;;;5114883;28;20475;-90
2022/08/22 12:39:30;;;;;;;6.50;2.50;;;25.60;99.90;;;;;;5077036;28;20548;-90
2022/08/22 12:42:17;;;;;;;6.10;2.47;;;25.50;99.90;;;;;;5137365;27;20185;-91
2022/08/22 12:45:19;;;;;;;5.80;2.40;;;25.30;99.90;;;;;;5101733;27;20465;-91
2022/08/22 12:48:03;;;;;;;7.35;2.35;;;25.60;99.90;;;;;;5101408;27;20046;-90
2022/08/22 12:50:50;;;;;;;6.43;2.25;;;25.60;99.90;;;;;;5137016;27;20126;-90
2022/08/22 12:53:53;;;;;;;6.90;2.90;;;25.80;99.90;;;;;;5109558;27;20134;-90
2022/08/22 12:56:43;;;;;;;8.30;2.92;;;25.70;99.90;;;;;;5135326;27;20293;-90
2022/08/22 12:59:23;;;;;;;5.95;2.67;;;25.90;99.70;;;;;;5136160;27;20054;-90
2022/08/22 13:01:53;;;;;;;7.20;2.33;;;26.00;99.90;;;;;;5118438;27;20039;-90
2022/08/22 13:04:26;;;;;;;7.03;2.58;;;26.00;99.40;;;;;;5135187;27;20070;-89
2022/08/22 13:07:25;;;;;;;5.40;2.40;;;26.00;99.10;;;;;;5118216;27;20381;-90
2022/08/22 13:10:00;;;;;;;5.45;2.00;;;26.30;99.30;;;;;;5132048;27;20177;-90
2022/08/22 13:12:42;;;;;;;6.07;2.50;;;26.60;99.10;;;;;;5136104;27;20488;-90
2022/08/22 13:15:23;;;;;;;6.45;2.20;;;27.00;98.50;;;;;;5136195;27;20086;-90
2022/08/22 13:17:50;;;;;;;6.13;1.80;;;26.90;97.70;;;;;;5135289;27;20043;-90
2022/08/22 13:20:30;;;;;;;7.32;2.50;;;27.40;98.40;;;;;;5136305;27;20122;-90
2022/08/22 13:23:00;;;;;;;5.40;2.50;;;27.30;97.50;;;;;;5135393;27;20043;-90
2022/08/22 13:25:49;;;;;;;6.38;2.38;;;27.20;96.60;;;;;;5117740;27;20043;-90
2022/08/22 13:28:15;;;;;;;8.95;2.08;;;27.00;96.50;;;;;;5135486;27;20043;-90
2022/08/22 13:30:42;;;;;;;5.30;2.00;;;26.90;96.10;;;;;;5117833;27;20131;-90
2022/08/22 13:33:21;;;;;;;5.75;2.03;;;26.80;96.50;;;;;;5117300;27;20039;-90
2022/08/22 13:35:51;;;;;;;7.47;2.13;;;27.10;97.30;;;;;;5117705;27;20057;-89
2022/08/22 13:38:25;;;;;;;6.72;2.58;;;26.80;96.40;;;;;;5134300;27;20047;-90
2022/08/22 13:40:53;;;;;;;4.55;2.20;;;26.50;95.80;;;;;;5135446;27;20063;-89
2022/08/22 13:43:23;;;;;;;6.25;2.20;;;26.70;96.10;;;;;;5134125;27;20039;-89
2022/08/22 13:45:59;;;;;;;4.75;2.10;;;26.40;96.00;;;;;;5134626;27;20045;-90
2022/08/22 13:48:45;;;;;;;8.40;2.15;;;26.30;96.10;;;;;;5117669;27;20050;-89
2022/08/22 13:51:29;;;;;;;5.17;2.00;;;26.50;96.90;;;;;;5117752;27;20035;-90
2022/08/22 13:54:10;;;;;;;7.43;2.47;;;26.70;96.40;;;;;;5134480;27;20281;-90
2022/08/22 13:56:59;;;;;;;5.28;2.13;;;26.80;95.90;;;;;;5135667;27;20047;-90
2022/08/22 13:59:50;;;;;;;5.78;2.30;;;27.20;95.90;;;;;;5134356;27;20543;-90
2022/08/22 14:02:24;;;;;;;6.93;2.33;;;27.30;95.20;;;;;;5135549;27;20083;-90